Time;durP1;ratioP1;P1;durP2;ratioP2;P2;SDS_P1;SDS_P2;PMS_P1;PMS_P2;Temp;Humidity;BMP_temperature;BMP_pressure;BME280_temperature;BME280_humidity;BME280_pressure;Samples;Min_cycle;Max_cycle;Signal;HPM_P1;HPM_P2
2023/01/15 00:00:37;;;;;;;;;;;5.60;99.90;;;;;;4889130;29;19926;-65
2023/01/15 00:03:02;;;;;;;;;;;5.50;99.90;;;;;;4888432;29;19930;-65
2023/01/15 00:05:28;;;;;;;;;;;5.40;99.90;;;;;;4889983;29;19919;-64
2023/01/15 00:07:54;;;;;;;;;;;5.30;99.90;;;;;;4896328;29;19926;-64
2023/01/15 00:10:20;;;;;;;;;;;5.20;99.90;;;;;;4890632;29;19946;-67
2023/01/15 00:12:45;;;;;;;;;;;5.10;99.90;;;;;;4896612;29;19915;-65
2023/01/15 00:15:11;;;;;;;;;;;5.10;99.90;;;;;;4895268;29;19919;-65
2023/01/15 00:17:36;;;;;;;;;;;5.10;99.90;;;;;;4892318;29;19919;-65
2023/01/15 00:20:02;;;;;;;;;;;5.10;99.90;;;;;;4895834;29;20365;-65
2023/01/15 00:22:28;;;;;;;;;;;5.20;99.90;;;;;;4895330;29;19958;-64
2023/01/15 00:27:38;;;;;;;;;;;5.40;99.90;;;;;;4892692;29;19934;-65
2023/01/15 00:30:04;;;;;;;;;;;5.40;99.90;;;;;;4891850;29;19911;-64
2023/01/15 00:32:30;;;;;;;;;;;5.40;99.90;;;;;;4891798;29;20609;-64
2023/01/15 00:34:59;;;;;;;;;;;5.50;99.90;;;;;;4896083;29;19915;-64
2023/01/15 00:37:25;;;;;;;;;;;5.50;99.90;;;;;;4897229;29;19919;-64
2023/01/15 00:39:50;;;;;;;;;;;5.50;99.90;;;;;;4897334;29;19919;-64
2023/01/15 00:42:16;;;;;;;;;;;5.50;99.90;;;;;;4893535;29;20143;-64
2023/01/15 00:44:42;;;;;;;;;;;5.50;99.90;;;;;;4897589;29;20276;-64
2023/01/15 00:47:13;;;;;;;;;;;5.60;99.90;;;;;;4893162;29;19934;-65
2023/01/15 00:49:38;;;;;;;;;;;5.50;99.90;;;;;;4894874;29;19970;-64
2023/01/15 00:52:04;;;;;;;;;;;5.40;99.90;;;;;;4897485;29;19919;-64
2023/01/15 00:54:30;;;;;;;;;;;5.50;99.90;;;;;;4893157;29;19954;-63
2023/01/15 00:56:55;;;;;;;;;;;5.50;99.90;;;;;;4894999;29;20364;-64
2023/01/15 00:59:21;;;;;;;;;;;5.60;99.90;;;;;;4889243;29;19977;-64
2023/01/15 01:01:46;;;;;;;;;;;5.60;99.90;;;;;;4891522;29;19911;-63
2023/01/15 01:04:12;;;;;;;;;;;5.60;99.90;;;;;;4892889;29;20068;-64
2023/01/15 01:06:37;;;;;;;;;;;5.60;99.90;;;;;;4889936;29;19926;-65
2023/01/15 01:09:03;;;;;;;;;;;5.60;99.90;;;;;;4888994;29;20467;-65
2023/01/15 01:11:32;;;;;;;;;;;5.60;99.90;;;;;;4896632;29;19923;-66
2023/01/15 01:14:00;;;;;;;;;;;5.40;99.90;;;;;;4896292;29;19919;-66
2023/01/15 01:16:36;;;;;;;;;;;5.30;99.90;;;;;;4891442;29;19962;-66
2023/01/15 01:19:03;;;;;;;;;;;5.30;99.90;;;;;;4893508;29;19911;-65
2023/01/15 01:21:29;;;;;;;;;;;5.30;99.90;;;;;;4892613;29;19918;-64
2023/01/15 01:23:56;;;;;;;;;;;5.30;99.90;;;;;;4891679;29;19919;-65
2023/01/15 01:26:22;;;;;;;;;;;5.30;99.90;;;;;;4884400;29;19919;-65
2023/01/15 01:28:49;;;;;;;;;;;5.10;99.90;;;;;;4890257;29;19918;-65
2023/01/15 01:31:14;;;;;;;;;;;5.00;99.90;;;;;;4888611;29;19915;-65
2023/01/15 01:33:40;;;;;;;;;;;5.10;99.90;;;;;;4891902;29;19937;-66
2023/01/15 01:36:05;;;;;;;;;;;5.00;99.90;;;;;;4888415;29;24222;-66
2023/01/15 01:38:31;;;;;;;;;;;5.20;99.90;;;;;;4889037;29;19919;-66
2023/01/15 01:40:56;;;;;;;;;;;5.20;99.90;;;;;;4885409;29;19930;-66
2023/01/15 01:43:23;;;;;;;;;;;5.10;99.90;;;;;;4882659;29;19915;-65
2023/01/15 01:45:49;;;;;;;;;;;5.00;99.90;;;;;;4890512;29;20023;-65
2023/01/15 01:48:16;;;;;;;;;;;5.00;99.90;;;;;;4890660;29;19922;-64
2023/01/15 01:50:42;;;;;;;;;;;5.10;99.90;;;;;;4893444;29;20371;-65
2023/01/15 01:53:11;;;;;;;;;;;5.20;99.90;;;;;;4893426;29;19923;-64
2023/01/15 01:55:37;;;;;;;;;;;5.10;99.90;;;;;;4890095;29;22567;-64
2023/01/15 01:58:03;;;;;;;;;;;5.10;99.90;;;;;;4889429;29;20636;-65
2023/01/15 02:00:30;;;;;;;;;;;5.00;99.90;;;;;;4891237;29;19922;-66
2023/01/15 02:02:55;;;;;;;;;;;4.90;99.90;;;;;;4891172;29;20178;-66
2023/01/15 02:05:31;;;;;;;;;;;5.10;99.90;;;;;;4887020;29;20022;-66
2023/01/15 02:07:57;;;;;;;;;;;5.10;99.90;;;;;;4892634;29;20042;-66
2023/01/15 02:10:22;;;;;;;;;;;5.20;99.90;;;;;;4888718;29;20353;-65
2023/01/15 02:12:54;;;;;;;;;;;5.20;99.90;;;;;;4894925;29;20418;-66
2023/01/15 02:15:32;;;;;;;;;;;5.20;99.90;;;;;;4888918;29;19914;-66
2023/01/15 02:18:06;;;;;;;;;;;5.00;99.90;;;;;;4885779;29;19919;-66
2023/01/15 02:20:36;;;;;;;;;;;5.00;99.90;;;;;;4884799;29;19914;-66
2023/01/15 02:23:04;;;;;;;;;;;4.90;99.90;;;;;;4889243;29;20399;-66
2023/01/15 02:25:45;;;;;;;;;;;4.80;99.90;;;;;;4889570;29;19919;-65
2023/01/15 02:28:17;;;;;;;;;;;4.80;99.90;;;;;;4887263;29;19930;-65
2023/01/15 02:30:46;;;;;;;;;;;4.70;99.90;;;;;;4888000;29;20386;-65
2023/01/15 02:33:15;;;;;;;;;;;4.70;99.90;;;;;;4890211;29;19965;-65
2023/01/15 02:35:41;;;;;;;;;;;4.70;99.90;;;;;;4888872;29;19919;-65
2023/01/15 02:38:08;;;;;;;;;;;4.80;99.90;;;;;;4881709;29;19926;-64
2023/01/15 02:40:35;;;;;;;;;;;4.70;99.90;;;;;;4882076;29;19998;-64
2023/01/15 02:43:00;;;;;;;;;;;4.60;99.90;;;;;;4884774;29;19925;-64
2023/01/15 02:45:29;;;;;;;;;;;4.40;99.90;;;;;;4886481;29;19945;-64
2023/01/15 02:47:56;;;;;;;;;;;4.40;99.90;;;;;;4890094;29;20304;-64
2023/01/15 02:50:24;;;;;;;;;;;4.50;99.90;;;;;;4890908;29;19915;-64
2023/01/15 02:52:52;;;;;;;;;;;4.70;99.90;;;;;;4891887;29;19930;-64
2023/01/15 02:55:24;;;;;;;;;;;4.80;99.90;;;;;;4889369;29;20058;-64
2023/01/15 02:57:51;;;;;;;;;;;4.80;99.90;;;;;;4890606;29;19951;-64
2023/01/15 03:00:18;;;;;;;;;;;4.70;99.90;;;;;;4888743;29;19919;-64
2023/01/15 03:02:46;;;;;;;;;;;4.70;99.90;;;;;;4896076;29;19921;-64
2023/01/15 03:05:16;;;;;;;;;;;4.60;99.90;;;;;;4891576;29;20054;-64
2023/01/15 03:07:45;;;;;;;;;;;4.60;99.90;;;;;;4893583;29;19929;-63
2023/01/15 03:10:11;;;;;;;;;;;4.60;99.90;;;;;;4907329;29;19915;-63
2023/01/15 03:13:04;;;;;;;;;;;4.60;99.90;;;;;;4898110;29;19911;-62
2023/01/15 03:18:15;;;;;;;;;;;4.90;99.90;;;;;;4888273;29;20480;-66
2023/01/15 03:20:42;;;;;;;;;;;4.90;99.90;;;;;;4894094;29;19915;-66
2023/01/15 03:23:10;;;;;;;;;;;4.90;99.90;;;;;;4893432;29;20364;-66
2023/01/15 03:25:44;;;;;;;;;;;4.90;99.90;;;;;;4890783;29;19919;-67
2023/01/15 03:28:10;;;;;;;;;;;4.90;99.90;;;;;;4893254;29;19923;-66
2023/01/15 03:30:36;;;;;;;;;;;4.90;99.90;;;;;;4896519;29;19911;-67
2023/01/15 03:33:01;;;;;;;;;;;4.70;99.90;;;;;;4902443;29;20328;-67
2023/01/15 03:35:39;;;;;;;;;;;4.80;99.90;;;;;;4902434;29;19915;-66
2023/01/15 03:38:05;;;;;;;;;;;4.70;99.90;;;;;;4903661;29;19919;-66
2023/01/15 03:40:32;;;;;;;;;;;4.60;99.90;;;;;;4905410;29;19970;-66
2023/01/15 03:45:46;;;;;;;;;;;4.60;99.90;;;;;;4905911;29;19986;-66
2023/01/15 03:48:29;;;;;;;;;;;4.60;99.90;;;;;;4899078;29;20026;-66
2023/01/15 03:50:58;;;;;;;;;;;4.40;99.90;;;;;;4905619;29;20005;-66
2023/01/15 03:53:27;;;;;;;;;;;4.10;99.90;;;;;;4902938;29;19927;-66
2023/01/15 03:56:04;;;;;;;;;;;4.00;99.90;;;;;;4900944;29;19998;-66
2023/01/15 03:58:36;;;;;;;;;;;4.00;99.90;;;;;;4902612;29;20361;-65
2023/01/15 04:01:02;;;;;;;;;;;4.10;99.90;;;;;;4903292;29;19918;-66
2023/01/15 04:03:28;;;;;;;;;;;4.10;99.90;;;;;;4904390;29;20293;-66
2023/01/15 04:05:55;;;;;;;;;;;4.10;99.90;;;;;;4904589;29;20010;-66
2023/01/15 04:08:21;;;;;;;;;;;4.10;99.90;;;;;;4896235;29;19919;-65
2023/01/15 04:10:53;;;;;;;;;;;4.10;99.90;;;;;;4903025;29;19926;-65
2023/01/15 04:13:19;;;;;;;;;;;4.10;99.90;;;;;;4901783;29;19926;-65
2023/01/15 04:15:44;;;;;;;;;;;4.10;99.90;;;;;;4902868;29;19911;-66
2023/01/15 04:18:10;;;;;;;;;;;4.10;99.90;;;;;;4902680;29;19965;-66
2023/01/15 04:20:35;;;;;;;;;;;4.10;99.90;;;;;;4906357;29;20030;-66
2023/01/15 04:23:01;;;;;;;;;;;4.10;99.90;;;;;;4902910;29;19950;-66
2023/01/15 04:25:26;;;;;;;;;;;4.20;99.90;;;;;;4900366;29;19922;-66
2023/01/15 04:27:55;;;;;;;;;;;4.30;99.90;;;;;;4900566;29;20301;-65
2023/01/15 04:30:21;;;;;;;;;;;4.30;99.90;;;;;;4902496;29;19915;-65
2023/01/15 04:32:49;;;;;;;;;;;4.30;99.90;;;;;;4904255;29;19917;-66
2023/01/15 04:35:15;;;;;;;;;;;4.40;99.90;;;;;;4900295;29;19923;-65
2023/01/15 04:37:41;;;;;;;;;;;4.50;99.90;;;;;;4905035;29;19918;-66
2023/01/15 04:40:07;;;;;;;;;;;4.70;99.90;;;;;;4898627;29;19911;-66
2023/01/15 04:45:17;;;;;;;;;;;4.70;99.90;;;;;;4905290;29;19918;-66
2023/01/15 04:47:42;;;;;;;;;;;4.70;99.90;;;;;;4902694;29;19923;-65
2023/01/15 04:50:08;;;;;;;;;;;4.50;99.90;;;;;;4900996;29;20324;-67
2023/01/15 04:52:34;;;;;;;;;;;4.40;99.90;;;;;;4896759;29;19930;-68
2023/01/15 04:55:00;;;;;;;;;;;4.50;99.90;;;;;;4902221;29;19919;-67
2023/01/15 04:57:25;;;;;;;;;;;4.50;99.90;;;;;;4899415;29;19918;-67
2023/01/15 04:59:51;;;;;;;;;;;4.50;99.90;;;;;;4897594;29;20394;-65
2023/01/15 05:02:16;;;;;;;;;;;4.50;99.90;;;;;;4900827;29;20009;-66
2023/01/15 05:04:42;;;;;;;;;;;4.40;99.90;;;;;;4901067;29;19937;-66
2023/01/15 05:07:08;;;;;;;;;;;4.40;99.90;;;;;;4902057;29;20006;-66
2023/01/15 05:09:33;;;;;;;;;;;4.50;99.90;;;;;;4900094;29;19970;-67
2023/01/15 05:11:59;;;;;;;;;;;4.30;99.90;;;;;;4896230;29;19954;-66
2023/01/15 05:14:25;;;;;;;;;;;4.20;99.90;;;;;;4903448;29;19911;-66
2023/01/15 05:16:50;;;;;;;;;;;4.20;99.90;;;;;;4900433;29;19975;-66
2023/01/15 05:19:16;;;;;;;;;;;4.30;99.90;;;;;;4900751;29;19925;-66
2023/01/15 05:21:42;;;;;;;;;;;4.40;99.90;;;;;;4905606;29;19915;-67
2023/01/15 05:24:11;;;;;;;;;;;4.50;99.90;;;;;;4901679;29;19982;-66
2023/01/15 05:26:37;;;;;;;;;;;4.50;99.90;;;;;;4902092;29;19922;-67
2023/01/15 05:29:02;;;;;;;;;;;4.40;99.90;;;;;;4904284;29;19915;-67
2023/01/15 05:31:28;;;;;;;;;;;4.30;99.90;;;;;;4900663;29;20257;-65
2023/01/15 05:33:54;;;;;;;;;;;4.10;99.90;;;;;;4903898;29;19968;-65
2023/01/15 05:36:21;;;;;;;;;;;4.10;99.90;;;;;;4904155;29;19921;-65
2023/01/15 05:38:47;;;;;;;;;;;4.20;99.90;;;;;;4904137;29;19969;-65
2023/01/15 05:44:11;;;;;;;;;;;4.30;99.90;;;;;;4903970;29;19921;-65
2023/01/15 05:46:37;;;;;;;;;;;4.30;99.90;;;;;;4904124;29;19926;-64
2023/01/15 05:49:06;;;;;;;;;;;4.20;99.90;;;;;;4897694;29;21856;-67
2023/01/15 05:51:32;;;;;;;;;;;4.20;99.90;;;;;;4902665;29;19919;-66
2023/01/15 05:53:58;;;;;;;;;;;4.20;99.90;;;;;;4900229;29;19986;-66
2023/01/15 05:56:24;;;;;;;;;;;4.30;99.90;;;;;;4902333;29;19915;-66
2023/01/15 05:58:50;;;;;;;;;;;4.40;99.90;;;;;;4903815;29;19922;-66
2023/01/15 06:01:16;;;;;;;;;;;4.50;99.90;;;;;;4899845;29;19915;-66
2023/01/15 06:03:41;;;;;;;;;;;4.50;99.90;;;;;;4899354;29;19915;-66
2023/01/15 06:06:11;;;;;;;;;;;4.40;99.90;;;;;;4897479;29;19919;-66
2023/01/15 06:08:36;;;;;;;;;;;4.30;99.90;;;;;;4901218;29;22000;-65
2023/01/15 06:11:02;;;;;;;;;;;4.10;99.90;;;;;;4903289;29;19951;-65
2023/01/15 06:13:28;;;;;;;;;;;4.10;99.90;;;;;;4899697;29;19975;-65
2023/01/15 06:15:53;;;;;;;;;;;4.20;99.90;;;;;;4902510;29;20002;-65
2023/01/15 06:18:19;;;;;;;;;;;4.20;99.90;;;;;;4901340;29;19915;-64
2023/01/15 06:20:44;;;;;;;;;;;4.30;99.90;;;;;;4899894;29;19911;-65
2023/01/15 06:23:10;;;;;;;;;;;4.50;99.90;;;;;;4899509;29;19923;-65
2023/01/15 06:25:36;;;;;;;;;;;4.60;99.90;;;;;;4901412;29;19950;-65
2023/01/15 06:28:04;;;;;;;;;;;4.60;99.90;;;;;;4900992;29;20367;-66
2023/01/15 06:30:30;;;;;;;;;;;4.60;99.90;;;;;;4901418;29;19919;-66
2023/01/15 06:32:56;;;;;;;;;;;4.50;99.90;;;;;;4901399;29;19911;-66
2023/01/15 06:35:21;;;;;;;;;;;4.40;99.90;;;;;;4900324;29;19919;-66
2023/01/15 06:37:50;;;;;;;;;;;4.40;99.90;;;;;;4895382;29;19919;-66
2023/01/15 06:40:15;;;;;;;;;;;4.50;99.90;;;;;;4897055;29;20392;-66
2023/01/15 06:48:11;;;;;;;;;;;4.10;99.90;;;;;;4898825;29;19930;-66
2023/01/15 06:50:37;;;;;;;;;;;4.00;99.90;;;;;;4895560;29;20037;-66
2023/01/15 06:53:02;;;;;;;;;;;3.90;99.90;;;;;;4898499;29;19966;-66
2023/01/15 06:55:27;;;;;;;;;;;3.90;99.90;;;;;;4898365;29;19930;-66
2023/01/15 06:57:53;;;;;;;;;;;3.90;99.90;;;;;;4900252;29;20372;-66
2023/01/15 07:00:19;;;;;;;;;;;3.90;99.90;;;;;;4903437;29;20073;-66
2023/01/15 07:02:44;;;;;;;;;;;3.90;99.90;;;;;;4900501;29;20219;-66
2023/01/15 07:05:10;;;;;;;;;;;3.90;99.90;;;;;;4904515;29;19915;-66
2023/01/15 07:07:35;;;;;;;;;;;3.80;99.90;;;;;;4905019;29;19985;-66
2023/01/15 07:10:01;;;;;;;;;;;3.80;99.90;;;;;;4900270;29;20347;-66
2023/01/15 07:12:26;;;;;;;;;;;4.00;99.90;;;;;;4905429;29;19915;-67
2023/01/15 07:14:52;;;;;;;;;;;4.10;99.90;;;;;;4905607;29;19911;-66
2023/01/15 07:17:17;;;;;;;;;;;4.10;99.90;;;;;;4907300;29;20675;-66
2023/01/15 07:19:43;;;;;;;;;;;4.30;99.90;;;;;;4904911;29;19911;-67
2023/01/15 07:22:09;;;;;;;;;;;4.40;99.90;;;;;;4900392;29;19915;-66
2023/01/15 07:24:35;;;;;;;;;;;4.50;99.90;;;;;;4898211;29;19958;-66
2023/01/15 07:27:00;;;;;;;;;;;4.50;99.90;;;;;;4904881;29;20266;-66
2023/01/15 07:29:26;;;;;;;;;;;4.40;99.90;;;;;;4908650;29;19918;-66
2023/01/15 07:31:51;;;;;;;;;;;4.30;99.90;;;;;;4901763;29;19967;-65
2023/01/15 07:34:17;;;;;;;;;;;4.30;99.90;;;;;;4900299;29;19919;-66
2023/01/15 07:36:42;;;;;;;;;;;4.50;99.90;;;;;;4902493;29;19922;-66
2023/01/15 07:39:09;;;;;;;;;;;4.50;99.90;;;;;;4902714;29;19915;-66
2023/01/15 07:49:54;;;;;;;;;;;4.40;99.90;;;;;;4901725;29;19921;-65
2023/01/15 07:52:20;;;;;;;;;;;4.50;99.90;;;;;;4900046;29;19919;-65
2023/01/15 07:54:46;;;;;;;;;;;4.50;99.90;;;;;;4907557;29;20170;-65
2023/01/15 07:57:20;;;;;;;;;;;4.50;99.90;;;;;;4902593;29;20510;-65
2023/01/15 07:59:45;;;;;;;;;;;4.60;99.90;;;;;;4908456;29;19915;-65
2023/01/15 08:02:11;;;;;;;;;;;4.50;99.90;;;;;;4892844;29;19982;-65
2023/01/15 08:04:37;;;;;;;;;;;4.60;99.90;;;;;;4902535;29;19914;-66
2023/01/15 08:07:03;;;;;;;;;;;4.60;99.90;;;;;;4905758;29;20270;-65
2023/01/15 08:09:29;;;;;;;;;;;4.60;99.90;;;;;;4901295;29;20092;-66
2023/01/15 08:17:25;;;;;;;;;;;4.70;99.90;;;;;;4898230;29;19963;-66
2023/01/15 08:19:51;;;;;;;;;;;4.70;99.90;;;;;;4899687;29;19911;-66
2023/01/15 08:22:16;;;;;;;;;;;4.70;99.90;;;;;;4895110;29;20013;-66
2023/01/15 08:24:42;;;;;;;;;;;4.70;99.90;;;;;;4901875;29;20475;-66
2023/01/15 08:27:07;;;;;;;;;;;4.80;99.90;;;;;;4894685;29;19927;-66
2023/01/15 08:29:33;;;;;;;;;;;4.70;99.90;;;;;;4914246;29;19915;-66
2023/01/15 08:31:58;;;;;;;;;;;4.70;99.90;;;;;;4900872;29;19966;-66
2023/01/15 08:34:24;;;;;;;;;;;4.70;99.90;;;;;;4902532;29;19919;-67
2023/01/15 08:36:56;;;;;;;;;;;4.60;99.90;;;;;;4902457;29;19922;-66
2023/01/15 08:39:21;;;;;;;;;;;4.60;99.90;;;;;;4917990;29;20689;-65
2023/01/15 08:41:47;;;;;;;;;;;4.70;99.90;;;;;;4898858;29;19911;-66
2023/01/15 08:44:12;;;;;;;;;;;4.80;99.90;;;;;;4901332;29;19950;-66
2023/01/15 08:46:38;;;;;;;;;;;4.80;99.90;;;;;;4904477;29;20269;-66
2023/01/15 08:49:03;;;;;;;;;;;4.70;99.90;;;;;;4900654;29;19980;-66
2023/01/15 08:51:29;;;;;;;;;;;4.70;99.90;;;;;;4894723;29;19960;-66
2023/01/15 08:53:54;;;;;;;;;;;4.70;99.90;;;;;;4901392;29;20412;-66
2023/01/15 08:56:20;;;;;;;;;;;4.80;99.90;;;;;;4904063;29;19919;-66
2023/01/15 08:58:48;;;;;;;;;;;4.80;99.90;;;;;;4901504;29;19910;-65
2023/01/15 09:01:14;;;;;;;;;;;4.90;99.90;;;;;;4896528;29;19919;-66
2023/01/15 09:03:41;;;;;;;;;;;5.00;99.90;;;;;;4900107;29;19927;-66
2023/01/15 09:06:07;;;;;;;;;;;5.00;99.90;;;;;;4901282;29;19911;-66
2023/01/15 09:08:33;;;;;;;;;;;4.90;99.90;;;;;;4903427;29;19919;-66
2023/01/15 09:10:59;;;;;;;;;;;4.90;99.90;;;;;;4911903;29;19967;-66
2023/01/15 09:13:25;;;;;;;;;;;5.00;99.90;;;;;;4891646;29;19947;-65
2023/01/15 09:15:51;;;;;;;;;;;5.10;99.90;;;;;;4893678;29;19979;-64
2023/01/15 09:18:18;;;;;;;;;;;5.20;99.90;;;;;;4890425;29;20705;-65
2023/01/15 09:20:44;;;;;;;;;;;5.20;99.90;;;;;;4892576;29;19915;-65
2023/01/15 09:23:10;;;;;;;;;;;5.20;99.90;;;;;;4887693;29;20770;-65
2023/01/15 09:25:35;;;;;;;;;;;5.00;99.90;;;;;;4893859;29;19911;-64
2023/01/15 09:28:01;;;;;;;;;;;4.90;99.90;;;;;;4897393;29;19925;-67
2023/01/15 09:30:26;;;;;;;;;;;4.90;99.90;;;;;;4896966;29;19915;-65
2023/01/15 09:32:52;;;;;;;;;;;4.90;99.90;;;;;;4901233;29;20364;-64
2023/01/15 09:35:17;;;;;;;;;;;4.90;99.90;;;;;;4899487;29;19947;-64
2023/01/15 09:37:43;;;;;;;;;;;5.00;99.90;;;;;;4893864;29;19918;-65
2023/01/15 09:40:44;;;;;;;;;;;5.10;99.90;;;;;;4898788;29;20351;-65
2023/01/15 09:43:17;;;;;;;;;;;5.10;99.90;;;;;;4887486;29;19915;-66
2023/01/15 09:45:46;;;;;;;;;;;5.10;99.90;;;;;;4891340;29;20009;-66
2023/01/15 09:48:11;;;;;;;;;;;5.20;99.90;;;;;;4892905;29;19927;-66
2023/01/15 09:50:43;;;;;;;;;;;5.30;99.90;;;;;;4894684;29;20369;-66
2023/01/15 09:53:31;;;;;;;;;;;5.40;99.90;;;;;;4888626;29;19927;-65
2023/01/15 09:55:58;;;;;;;;;;;5.50;99.90;;;;;;4889338;29;19915;-66
2023/01/15 09:58:32;;;;;;;;;;;5.60;99.90;;;;;;4889521;29;19988;-65
2023/01/15 10:00:58;;;;;;;;;;;5.60;99.90;;;;;;4890912;29;20005;-66
2023/01/15 10:03:41;;;;;;;;;;;5.60;99.90;;;;;;4893196;29;21020;-66
2023/01/15 10:06:12;;;;;;;;;;;5.60;99.90;;;;;;4894170;29;19926;-66
2023/01/15 10:08:45;;;;;;;;;;;5.60;99.90;;;;;;4888213;29;20010;-69
2023/01/15 10:11:10;;;;;;;;;;;5.70;99.90;;;;;;4891483;29;19912;-66
2023/01/15 10:13:51;;;;;;;;;;;5.70;99.90;;;;;;4890940;29;19990;-68
2023/01/15 10:16:21;;;;;;;;;;;5.70;99.90;;;;;;4891786;29;19970;-64
2023/01/15 10:18:47;;;;;;;;;;;5.70;99.90;;;;;;4895459;29;20158;-65
2023/01/15 10:21:15;;;;;;;;;;;5.80;99.90;;;;;;4894976;29;20500;-64
2023/01/15 10:23:41;;;;;;;;;;;5.80;99.90;;;;;;4891885;29;20419;-66
2023/01/15 10:26:09;;;;;;;;;;;5.90;99.90;;;;;;4893240;29;19918;-65
2023/01/15 10:28:55;;;;;;;;;;;5.90;99.90;;;;;;4903523;29;19934;-64
2023/01/15 10:31:23;;;;;;;;;;;5.90;99.90;;;;;;4879018;29;19911;-64
2023/01/15 10:33:48;;;;;;;;;;;5.90;99.90;;;;;;4887196;29;19923;-64
2023/01/15 10:36:21;;;;;;;;;;;5.90;99.90;;;;;;4890405;29;20397;-65
2023/01/15 10:38:53;;;;;;;;;;;6.00;99.90;;;;;;4890628;29;19915;-65
2023/01/15 10:41:24;;;;;;;;;;;6.00;99.90;;;;;;4885269;29;20773;-65
2023/01/15 10:43:52;;;;;;;;;;;6.00;99.90;;;;;;4894256;29;20588;-67
2023/01/15 10:46:21;;;;;;;;;;;6.00;99.90;;;;;;4888871;29;19919;-65
2023/01/15 10:48:58;;;;;;;;;;;6.10;99.90;;;;;;4889831;29;19927;-70
2023/01/15 10:51:30;;;;;;;;;;;6.20;99.90;;;;;;4892977;29;19911;-68
2023/01/15 10:53:59;;;;;;;;;;;6.30;99.90;;;;;;4886118;29;20190;-66
2023/01/15 10:56:31;;;;;;;;;;;7.10;99.90;;;;;;4889011;29;20016;-66
2023/01/15 10:58:57;;;;;;;;;;;7.20;99.90;;;;;;4893937;29;20272;-66
2023/01/15 11:01:24;;;;;;;;;;;6.90;99.90;;;;;;4897940;29;19919;-66
2023/01/15 11:03:50;;;;;;;;;;;6.70;99.90;;;;;;4897817;29;19997;-66
2023/01/15 11:06:16;;;;;;;;;;;6.60;99.90;;;;;;4895344;29;19918;-66
2023/01/15 11:08:52;;;;;;;;;;;6.60;99.90;;;;;;4897996;29;19952;-66
2023/01/15 11:19:35;;;;;;;;;;;6.50;99.90;;;;;;4893509;29;19911;-66
2023/01/15 11:19:38;;;;;;;;;;;6.50;99.90;;;;;;4894698;29;20460;-65
2023/01/15 11:22:07;;;;;;;;;;;6.50;99.90;;;;;;4900392;29;19923;-65
2023/01/15 11:24:35;;;;;;;;;;;6.60;99.90;;;;;;4893691;29;20005;-65
2023/01/15 11:27:00;;;;;;;;;;;6.50;99.90;;;;;;4891781;29;19926;-64
2023/01/15 11:29:31;;;;;;;;;;;6.50;99.90;;;;;;4893752;29;19911;-64
2023/01/15 11:31:57;;;;;;;;;;;6.50;99.90;;;;;;4895587;29;19919;-64
2023/01/15 11:34:23;;;;;;;;;;;6.50;99.90;;;;;;4894532;29;22643;-65
2023/01/15 11:36:59;;;;;;;;;;;6.50;99.90;;;;;;4893211;29;19963;-64
2023/01/15 11:39:26;;;;;;;;;;;6.60;99.90;;;;;;4895970;29;19974;-65
2023/01/15 11:53:08;;;;;;;;;;;6.60;99.90;;;;;;4898199;29;20395;-65
2023/01/15 11:55:34;;;;;;;;;;;6.60;99.90;;;;;;4892683;29;20010;-65
2023/01/15 11:58:00;;;;;;;;;;;6.70;99.90;;;;;;4902375;29;20283;-66
2023/01/15 12:00:25;;;;;;;;;;;6.80;99.90;;;;;;4899914;29;19915;-66
2023/01/15 12:02:53;;;;;;;;;;;6.90;99.90;;;;;;4900531;29;19921;-66
2023/01/15 12:05:28;;;;;;;;;;;6.90;99.90;;;;;;4900541;29;19966;-66
2023/01/15 12:07:56;;;;;;;;;;;6.80;99.90;;;;;;4893995;29;19928;-67
2023/01/15 12:11:02;;;;;;;;;;;6.80;99.90;;;;;;4889610;29;19919;-66
2023/01/15 12:13:08;;;;;;;;;;;7.00;99.90;;;;;;4900671;29;20391;-66
2023/01/15 12:15:36;;;;;;;;;;;7.10;99.90;;;;;;4902321;29;19911;-66
2023/01/15 12:18:15;;;;;;;;;;;7.10;99.90;;;;;;4904981;29;19959;-65
2023/01/15 12:20:41;;;;;;;;;;;7.10;99.90;;;;;;4898772;29;19929;-66
2023/01/15 12:23:16;;;;;;;;;;;7.10;99.90;;;;;;4898801;29;19911;-66
2023/01/15 12:25:44;;;;;;;;;;;7.20;99.90;;;;;;4900567;29;20010;-66
2023/01/15 12:28:13;;;;;;;;;;;7.10;99.90;;;;;;4906240;29;20026;-66
2023/01/15 12:30:57;;;;;;;;;;;7.00;99.90;;;;;;4897525;29;19919;-66
2023/01/15 12:33:28;;;;;;;;;;;7.00;99.90;;;;;;4900577;29;19915;-66
2023/01/15 12:36:09;;;;;;;;;;;7.10;99.90;;;;;;4897840;29;19922;-66
2023/01/15 12:38:40;;;;;;;;;;;7.10;99.90;;;;;;4900433;29;19918;-66
2023/01/15 12:41:12;;;;;;;;;;;7.20;99.90;;;;;;4899467;29;19919;-66
2023/01/15 12:46:24;;;;;;;;;;;7.30;99.90;;;;;;4896533;29;20022;-65
2023/01/15 12:48:55;;;;;;;;;;;7.20;99.90;;;;;;4899770;29;20010;-67
2023/01/15 12:51:27;;;;;;;;;;;7.10;99.90;;;;;;4901078;29;20010;-67
2023/01/15 12:53:56;;;;;;;;;;;7.20;99.90;;;;;;4904698;29;19927;-67
2023/01/15 12:56:28;;;;;;;;;;;7.30;99.90;;;;;;4902024;29;20717;-67
2023/01/15 12:58:53;;;;;;;;;;;7.20;99.90;;;;;;4904321;29;20034;-67
2023/01/15 13:01:22;;;;;;;;;;;7.30;99.90;;;;;;4902099;29;20009;-67
2023/01/15 13:03:59;;;;;;;;;;;7.40;99.90;;;;;;4889624;29;19943;-68
2023/01/15 13:06:27;;;;;;;;;;;7.30;99.90;;;;;;4888262;29;19925;-67
2023/01/15 13:08:58;;;;;;;;;;;7.20;99.90;;;;;;4885539;29;20358;-67
2023/01/15 13:11:24;;;;;;;;;;;7.30;99.90;;;;;;4890264;29;19915;-67
2023/01/15 13:13:58;;;;;;;;;;;7.40;99.90;;;;;;4887299;29;19941;-67
2023/01/15 13:16:30;;;;;;;;;;;7.30;99.90;;;;;;4891300;29;19937;-67
2023/01/15 13:19:11;;;;;;;;;;;7.30;99.90;;;;;;4888511;29;19919;-67
2023/01/15 13:21:37;;;;;;;;;;;7.40;99.90;;;;;;4889817;29;19911;-67
2023/01/15 13:24:09;;;;;;;;;;;7.40;99.90;;;;;;4892737;29;19916;-67
2023/01/15 13:26:49;;;;;;;;;;;7.40;99.90;;;;;;4888300;29;19925;-66
2023/01/15 13:29:15;;;;;;;;;;;7.40;99.90;;;;;;4892435;29;20400;-67
2023/01/15 13:31:47;;;;;;;;;;;7.30;99.90;;;;;;4888623;29;19907;-67
2023/01/15 13:34:17;;;;;;;;;;;7.40;99.90;;;;;;4902426;29;19919;-67
2023/01/15 13:36:44;;;;;;;;;;;7.40;99.90;;;;;;4893676;29;19911;-67
2023/01/15 13:39:15;;;;;;;;;;;7.50;99.90;;;;;;4902184;29;20036;-67
2023/01/15 13:44:30;;;;;;;;;;;7.70;99.90;;;;;;4893045;29;19918;-67
2023/01/15 13:46:58;;;;;;;;;;;7.70;99.90;;;;;;4912648;29;20001;-66
2023/01/15 13:49:30;;;;;;;;;;;7.60;99.90;;;;;;4896630;29;20484;-66
2023/01/15 13:52:02;;;;;;;;;;;7.70;99.90;;;;;;4910749;29;20698;-66
2023/01/15 13:54:29;;;;;;;;;;;7.60;99.90;;;;;;4898452;29;19954;-66
2023/01/15 13:57:05;;;;;;;;;;;7.60;99.90;;;;;;4893392;29;19934;-66
2023/01/15 13:59:42;;;;;;;;;;;7.60;99.90;;;;;;4888934;29;19920;-66
2023/01/15 14:02:26;;;;;;;;;;;7.50;99.90;;;;;;4897786;29;20263;-66
2023/01/15 14:04:52;;;;;;;;;;;7.60;99.90;;;;;;4901440;29;19911;-67
2023/01/15 14:07:30;;;;;;;;;;;7.60;99.90;;;;;;4900686;29;19926;-67
2023/01/15 14:10:06;;;;;;;;;;;7.60;99.90;;;;;;4900764;29;20037;-66
2023/01/15 14:12:58;;;;;;;;;;;7.60;99.90;;;;;;4902138;29;19911;-66
2023/01/15 14:15:32;;;;;;;;;;;7.60;99.90;;;;;;4891449;29;19950;-66
2023/01/15 14:18:07;;;;;;;;;;;7.60;99.90;;;;;;4903684;29;19926;-66
2023/01/15 14:20:39;;;;;;;;;;;7.60;99.90;;;;;;4902496;29;19923;-66
2023/01/15 14:23:10;;;;;;;;;;;7.60;99.90;;;;;;4901568;29;20021;-66
2023/01/15 14:25:51;;;;;;;;;;;7.60;99.90;;;;;;4896964;29;19920;-66
2023/01/15 14:28:23;;;;;;;;;;;7.60;99.90;;;;;;4896993;29;20112;-66
2023/01/15 14:31:07;;;;;;;;;;;7.60;99.90;;;;;;4897670;29;19918;-66
2023/01/15 14:33:48;;;;;;;;;;;7.60;99.90;;;;;;4899189;29;19915;-66
2023/01/15 14:36:28;;;;;;;;;;;7.50;99.90;;;;;;4892474;29;19966;-66
2023/01/15 14:39:01;;;;;;;;;;;7.50;99.90;;;;;;4883928;29;19915;-67
2023/01/15 14:41:32;;;;;;;;;;;7.50;99.90;;;;;;4885375;29;20037;-66
2023/01/15 14:44:01;;;;;;;;;;;7.50;99.90;;;;;;4897044;29;19963;-66
2023/01/15 14:46:29;;;;;;;;;;;7.50;99.90;;;;;;4905156;29;19919;-66
2023/01/15 14:48:55;;;;;;;;;;;7.50;99.90;;;;;;4899351;29;19919;-66
2023/01/15 14:51:31;;;;;;;;;;;7.60;99.90;;;;;;4903101;29;19911;-66
2023/01/15 14:53:58;;;;;;;;;;;7.60;99.90;;;;;;4901221;29;20029;-66
2023/01/15 14:56:27;;;;;;;;;;;7.60;99.90;;;;;;4895641;29;19919;-67
2023/01/15 14:59:02;;;;;;;;;;;7.60;99.90;;;;;;4894086;29;19915;-66
2023/01/15 15:01:34;;;;;;;;;;;7.60;99.90;;;;;;4889097;29;19943;-66
2023/01/15 15:04:08;;;;;;;;;;;7.60;99.90;;;;;;4894741;29;19923;-66
2023/01/15 15:06:43;;;;;;;;;;;7.70;99.90;;;;;;4898025;29;19942;-65
2023/01/15 15:09:12;;;;;;;;;;;7.70;99.90;;;;;;4896056;29;20368;-65
2023/01/15 15:14:26;;;;;;;;;;;7.70;99.90;;;;;;4893664;29;20018;-66
2023/01/15 15:16:52;;;;;;;;;;;7.70;99.90;;;;;;4900156;29;20464;-66
2023/01/15 15:19:29;;;;;;;;;;;7.70;99.90;;;;;;4892404;29;19915;-66
2023/01/15 15:21:57;;;;;;;;;;;7.70;99.90;;;;;;4899430;29;19926;-66
2023/01/15 15:24:25;;;;;;;;;;;7.80;99.90;;;;;;4897831;29;19957;-66
2023/01/15 15:26:51;;;;;;;;;;;7.70;99.90;;;;;;4905475;29;19915;-66
2023/01/15 15:29:17;;;;;;;;;;;7.70;99.90;;;;;;4899396;29;19954;-66
2023/01/15 15:31:54;;;;;;;;;;;7.60;99.90;;;;;;4895078;29;19983;-66
2023/01/15 15:34:23;;;;;;;;;;;7.60;99.90;;;;;;4887613;29;20551;-66
2023/01/15 15:36:49;;;;;;;;;;;7.60;99.90;;;;;;4894470;29;19975;-66